createdAt,value
2022-12-03T00:00:13.429Z,102423.25
2022-12-03T00:02:40.672Z,102431.19
2022-12-03T00:05:07.354Z,102430.44
2022-12-03T00:07:34.934Z,102426.97
2022-12-03T00:10:01.399Z,102418.16
2022-12-03T00:12:27.802Z,102417.13
2022-12-03T00:14:54.417Z,102429.28
2022-12-03T00:17:20.977Z,102416.81
2022-12-03T00:19:47.391Z,102420.38
2022-12-03T00:22:13.810Z,102413.31
2022-12-03T00:24:40.206Z,102413.31
2022-12-03T00:27:06.613Z,102413.28
2022-12-03T00:29:33.001Z,102415.97
2022-12-03T00:31:59.488Z,102413.31
2022-12-03T00:34:25.883Z,102419.34
2022-12-03T00:36:52.308Z,102425.53
2022-12-03T00:39:18.729Z,102427.34
2022-12-03T00:41:45.121Z,102423.69
2022-12-03T00:44:11.538Z,102423.75
2022-12-03T00:46:37.999Z,102418.47
2022-12-03T00:49:04.438Z,102409.63
2022-12-03T00:51:30.832Z,102415.66
2022-12-03T00:53:57.262Z,102421.59
2022-12-03T00:56:23.668Z,102417.06
2022-12-03T00:58:50.243Z,102418.09
2022-12-03T01:01:16.736Z,102414.47
2022-12-03T01:03:43.195Z,102411.88
2022-12-03T01:06:09.615Z,102411.94
2022-12-03T01:08:36.083Z,102409.28
2022-12-03T01:11:02.503Z,102420.59
2022-12-03T01:13:28.903Z,102421.28
2022-12-03T01:15:55.427Z,102418.66
2022-12-03T01:18:21.881Z,102428.34
2022-12-03T01:20:48.298Z,102422.03
2022-12-03T01:23:14.719Z,102424.78
2022-12-03T01:25:41.136Z,102418.47
2022-12-03T01:28:07.532Z,102423.75
2022-12-03T01:30:33.944Z,102422.81
2022-12-03T01:33:00.358Z,102423.75
2022-12-03T01:35:26.742Z,102427.31
2022-12-03T01:37:53.148Z,102420.34
2022-12-03T01:40:19.543Z,102428.13
2022-12-03T01:42:46.066Z,102432.38
2022-12-03T01:45:22.266Z,102429.75
2022-12-03T01:47:48.700Z,102431.31
2022-12-03T01:50:19.758Z,102424.38
2022-12-03T01:52:46.177Z,102426.97
2022-12-03T01:55:15.329Z,102428.63
2022-12-03T01:57:44.373Z,102433.69
2022-12-03T02:00:18.751Z,102428.25
2022-12-03T02:02:45.209Z,102421.06
2022-12-03T02:05:16.726Z,102419.44
2022-12-03T02:07:43.140Z,102426.47
2022-12-03T02:10:11.528Z,102427.56
2022-12-03T02:12:41.169Z,102435.22
2022-12-03T02:15:08.039Z,102434.38
2022-12-03T02:17:34.501Z,102434.28
2022-12-03T02:20:00.893Z,102436.75
2022-12-03T02:22:36.704Z,102427.81
2022-12-03T02:25:11.583Z,102430.59
2022-12-03T02:27:37.992Z,102432.22
2022-12-03T02:30:05.827Z,102419.06
2022-12-03T02:32:32.269Z,102423.50
2022-12-03T02:34:58.664Z,102422.53
2022-12-03T02:37:28.462Z,102427.81
2022-12-03T02:39:55.853Z,102421.56
2022-12-03T02:42:22.268Z,102419.03
2022-12-03T02:44:48.668Z,102422.59
2022-12-03T02:47:15.067Z,102423.28
2022-12-03T02:49:41.487Z,102426.75
2022-12-03T02:52:07.986Z,102419.56
2022-12-03T02:54:34.474Z,102419.66
2022-12-03T02:57:00.886Z,102424.03
2022-12-03T02:59:27.273Z,102424.91
2022-12-03T03:01:53.797Z,102427.34
2022-12-03T03:04:20.290Z,102420.13
2022-12-03T03:06:46.690Z,102415.81
2022-12-03T03:09:13.071Z,102414.97
2022-12-03T03:11:39.497Z,102415.03
2022-12-03T03:14:05.872Z,102417.56
2022-12-03T03:16:33.563Z,102416.53
2022-12-03T03:19:00.491Z,102418.31
2022-12-03T03:21:26.902Z,102415.72
2022-12-03T03:23:53.313Z,102421.81
2022-12-03T03:26:19.703Z,102419.88
2022-12-03T03:28:47.751Z,102425.09
2022-12-03T03:31:14.698Z,102410.25
2022-12-03T03:33:41.652Z,102420.75
2022-12-03T03:36:08.398Z,102413.88
2022-12-03T03:38:34.830Z,102422.41
2022-12-03T03:41:01.747Z,102413.50
2022-12-03T03:43:28.184Z,102410.25
2022-12-03T03:45:54.679Z,102423.34
2022-12-03T03:48:21.266Z,102409.19
2022-12-03T03:50:47.666Z,102412.53
2022-12-03T03:53:14.070Z,102410.06
2022-12-03T03:55:40.612Z,102406.50
2022-12-03T03:58:07.040Z,102423.25
2022-12-03T04:00:33.440Z,102403.97
2022-12-03T04:02:59.860Z,102391.59
2022-12-03T04:05:26.272Z,102402.19
2022-12-03T04:07:52.765Z,102400.59
2022-12-03T04:10:19.185Z,102391.66
2022-12-03T04:12:45.595Z,102391.59
2022-12-03T04:15:11.994Z,102391.41
2022-12-03T04:17:38.395Z,102393.97
2022-12-03T04:20:05.422Z,102405.44
2022-12-03T04:22:31.835Z,102402.97
2022-12-03T04:24:58.275Z,102403.81
2022-12-03T04:27:24.672Z,102401.53
2022-12-03T04:29:51.126Z,102394.34
2022-12-03T04:32:17.526Z,102398.66
2022-12-03T04:34:43.937Z,102394.22
2022-12-03T04:37:10.474Z,102389.75
2022-12-03T04:39:37.011Z,102411.69
2022-12-03T04:42:03.671Z,102408.91
2022-12-03T04:44:30.088Z,102394.66
2022-12-03T04:46:56.511Z,102398.44
2022-12-03T04:49:22.981Z,102405.50
2022-12-03T04:51:49.438Z,102401.97
2022-12-03T04:54:15.879Z,102397.81
2022-12-03T04:56:42.281Z,102417.00
2022-12-03T04:59:14.197Z,102403.81
2022-12-03T05:01:42.386Z,102412.44
2022-12-03T05:04:08.818Z,102410.19
2022-12-03T05:06:35.262Z,102401.59
2022-12-03T05:09:01.699Z,102401.44
2022-12-03T05:11:28.098Z,102397.75
2022-12-03T05:13:54.541Z,102412.53
2022-12-03T05:16:21.171Z,102413.34
2022-12-03T05:18:47.735Z,102396.94
2022-12-03T05:21:14.214Z,102407.38
2022-12-03T05:23:40.634Z,102399.28
2022-12-03T05:26:07.110Z,102401.13
2022-12-03T05:28:33.520Z,102406.25
2022-12-03T05:30:59.958Z,102403.59
2022-12-03T05:33:26.389Z,102396.28
2022-12-03T05:35:52.805Z,102398.97
2022-12-03T05:38:19.267Z,102403.34
2022-12-03T05:40:45.675Z,102380.94
2022-12-03T05:43:12.109Z,102385.38
2022-12-03T05:45:39.966Z,102389.81
2022-12-03T05:48:08.122Z,102395.91
2022-12-03T05:50:35.218Z,102385.38
2022-12-03T05:53:01.623Z,102388.88
2022-12-03T05:55:28.094Z,102392.41
2022-12-03T05:57:54.597Z,102387.28
2022-12-03T06:00:21.960Z,102390.56
2022-12-03T06:02:48.526Z,102385.19
2022-12-03T06:05:15.133Z,102385.31
2022-12-03T06:07:41.736Z,102388.88
2022-12-03T06:10:09.428Z,102383.53
2022-12-03T06:12:35.854Z,102378.38
2022-12-03T06:15:02.280Z,102376.69
2022-12-03T06:17:28.688Z,102374.84
2022-12-03T06:19:55.094Z,102382.56
2022-12-03T06:22:21.482Z,102380.75
2022-12-03T06:24:47.978Z,102374.59
2022-12-03T06:27:14.372Z,102377.25
2022-12-03T06:29:40.794Z,102369.44
2022-12-03T06:32:07.192Z,102369.38
2022-12-03T06:34:33.711Z,102363.31
2022-12-03T06:37:00.097Z,102369.59
2022-12-03T06:39:26.500Z,102371.50
2022-12-03T06:41:52.909Z,102376.75
2022-12-03T06:44:19.329Z,102375.75
2022-12-03T06:46:45.890Z,102377.47
2022-12-03T06:49:12.404Z,102377.47
2022-12-03T06:51:38.835Z,102374.84
2022-12-03T06:54:05.423Z,102380.28
2022-12-03T06:56:36.804Z,102382.84
2022-12-03T06:59:04.376Z,102381.00
2022-12-03T07:01:30.925Z,102386.16
2022-12-03T07:03:57.468Z,102385.31
2022-12-03T07:06:23.902Z,102380.94
2022-12-03T07:08:50.308Z,102384.47
2022-12-03T07:11:17.774Z,102384.41
2022-12-03T07:13:44.307Z,102367.63
2022-12-03T07:16:10.752Z,102385.38
2022-12-03T07:18:37.303Z,102386.19
2022-12-03T07:21:03.805Z,102377.38
2022-12-03T07:23:31.794Z,102383.47
2022-12-03T07:25:58.208Z,102376.31
2022-12-03T07:28:24.627Z,102382.47
2022-12-03T07:30:51.021Z,102381.44
2022-12-03T07:33:17.427Z,102387.66
2022-12-03T07:35:43.830Z,102388.28
2022-12-03T07:38:10.322Z,102384.75
2022-12-03T07:40:36.826Z,102389.06
2022-12-03T07:43:03.225Z,102390.72
2022-12-03T07:45:29.670Z,102386.44
2022-12-03T07:47:56.058Z,102391.41
2022-12-03T07:50:22.470Z,102386.03
2022-12-03T07:52:48.878Z,102388.84
2022-12-03T07:55:15.390Z,102379.28
2022-12-03T07:57:41.805Z,102383.59
2022-12-03T08:00:08.594Z,102383.47
2022-12-03T08:02:35.899Z,102376.53
2022-12-03T08:05:02.359Z,102376.66
2022-12-03T08:07:28.820Z,102370.00
2022-12-03T08:09:55.289Z,102375.31
2022-12-03T08:12:29.101Z,102374.41
2022-12-03T08:14:56.282Z,102369.00
2022-12-03T08:17:22.840Z,102369.81
2022-12-03T08:19:49.255Z,102358.78
2022-12-03T08:22:15.884Z,102370.53
2022-12-03T08:24:42.883Z,102366.97
2022-12-03T08:27:16.661Z,102363.56
2022-12-03T08:29:43.056Z,102358.25
2022-12-03T08:32:11.036Z,102366.38
2022-12-03T08:34:45.234Z,102362.09
2022-12-03T08:37:19.001Z,102368.31
2022-12-03T08:39:46.949Z,102364.78
2022-12-03T08:42:18.578Z,102362.47
2022-12-03T08:44:44.997Z,102347.41
2022-12-03T08:47:23.863Z,102355.34
2022-12-03T08:50:13.767Z,102352.75
2022-12-03T08:52:40.139Z,102350.22
2022-12-03T08:55:29.066Z,102349.66
2022-12-03T08:57:55.461Z,102343.78
2022-12-03T09:00:23.134Z,102342.94
2022-12-03T09:02:53.413Z,102355.66
2022-12-03T09:05:22.018Z,102342.50
2022-12-03T09:07:48.464Z,102341.66
2022-12-03T09:10:15.198Z,102344.41
2022-12-03T09:12:41.595Z,102341.97
2022-12-03T09:15:08.358Z,102336.09
2022-12-03T09:17:34.796Z,102329.47
2022-12-03T09:20:01.191Z,102327.00
2022-12-03T09:22:27.606Z,102328.78
2022-12-03T09:24:54.348Z,102336.75
2022-12-03T09:27:20.915Z,102333.38
2022-12-03T09:29:47.333Z,102330.16
2022-12-03T09:32:18.096Z,102322.38
2022-12-03T09:34:45.088Z,102323.53
2022-12-03T09:37:11.491Z,102320.22
2022-12-03T09:39:37.921Z,102316.78
2022-12-03T09:42:04.506Z,102323.09
2022-12-03T09:44:32.357Z,102319.69
2022-12-03T09:47:02.192Z,102323.41
2022-12-03T09:49:28.741Z,102317.28
2022-12-03T09:51:56.979Z,102307.41
2022-12-03T09:54:25.217Z,102298.53
2022-12-03T09:56:52.390Z,102314.16
2022-12-03T09:59:18.802Z,102313.25
2022-12-03T10:01:45.305Z,102302.50
2022-12-03T10:04:11.843Z,102310.41
2022-12-03T10:06:42.517Z,102300.84
2022-12-03T10:09:15.759Z,102304.47
2022-12-03T10:11:42.177Z,102300.09
2022-12-03T10:14:11.335Z,102287.94
2022-12-03T10:16:37.791Z,102283.66
2022-12-03T10:19:04.268Z,102291.81
2022-12-03T10:21:34.706Z,102282.91
2022-12-03T10:24:24.330Z,102288.91
2022-12-03T10:26:51.772Z,102287.84
2022-12-03T10:29:19.838Z,102280.88
2022-12-03T10:31:48.899Z,102274.72
2022-12-03T10:34:23.628Z,102273.16
2022-12-03T10:37:16.757Z,102276.75
2022-12-03T10:39:56.764Z,102270.63
2022-12-03T10:42:23.892Z,102268.03
2022-12-03T10:45:14.022Z,102274.28
2022-12-03T10:47:40.802Z,102275.00
2022-12-03T10:50:24.567Z,102271.44
2022-12-03T10:52:51.115Z,102268.00
2022-12-03T10:55:18.799Z,102260.81
2022-12-03T10:57:46.406Z,102260.81
2022-12-03T11:00:19.444Z,102267.06
2022-12-03T11:02:50.535Z,102248.66
2022-12-03T11:05:25.317Z,102253.94
2022-12-03T11:07:51.793Z,102265.25
2022-12-03T11:10:18.593Z,102260.91
2022-12-03T11:13:22.478Z,102251.16
2022-12-03T11:15:49.061Z,102251.84
2022-12-03T11:18:37.329Z,102253.63
2022-12-03T11:21:06.782Z,102252.78
2022-12-03T11:23:45.381Z,102242.31
2022-12-03T11:26:18.814Z,102241.47
2022-12-03T11:28:46.018Z,102239.69
2022-12-03T11:31:40.393Z,102231.53
2022-12-03T11:34:18.765Z,102231.53
2022-12-03T11:37:10.158Z,102222.91
2022-12-03T11:39:52.384Z,102214.22
2022-12-03T11:42:22.125Z,102214.31
2022-12-03T11:44:51.967Z,102216.13
2022-12-03T11:47:18.533Z,102206.28
2022-12-03T11:49:45.856Z,102206.22
2022-12-03T11:52:19.909Z,102199.28
2022-12-03T11:54:48.436Z,102200.09
2022-12-03T11:57:36.969Z,102205.31
2022-12-03T12:00:13.197Z,102200.78
2022-12-03T12:02:39.798Z,102194.31
2022-12-03T12:05:21.923Z,102195.97
2022-12-03T12:07:48.590Z,102192.44
2022-12-03T12:10:45.359Z,102191.56
2022-12-03T12:13:34.937Z,102176.53
2022-12-03T12:16:05.167Z,102191.56
2022-12-03T12:18:38.601Z,102186.28
2022-12-03T12:21:42.730Z,102180.25
2022-12-03T12:24:35.292Z,102184.63
2022-12-03T12:27:07.079Z,102170.69
2022-12-03T12:29:34.325Z,102157.41
2022-12-03T12:32:10.135Z,102153.09
2022-12-03T12:34:37.292Z,102153.09
2022-12-03T12:37:03.870Z,102153.13
2022-12-03T12:39:30.658Z,102139.06
2022-12-03T12:42:03.248Z,102147.06
2022-12-03T12:44:29.772Z,102142.69
2022-12-03T12:46:56.340Z,102148.81
2022-12-03T12:49:24.171Z,102144.34
2022-12-03T12:51:50.577Z,102127.56
2022-12-03T12:54:17.286Z,102137.38
2022-12-03T12:56:44.902Z,102132.09
2022-12-03T12:59:13.415Z,102126.69
2022-12-03T13:01:40.287Z,102132.81
2022-12-03T13:04:13.469Z,102130.16
2022-12-03T13:06:39.947Z,102128.44
2022-12-03T13:09:15.871Z,102125.06
2022-12-03T13:11:42.965Z,102126.06
2022-12-03T13:14:15.405Z,102124.31
2022-12-03T13:16:41.863Z,102128.66
2022-12-03T13:19:24.949Z,102115.28
2022-12-03T13:21:55.321Z,102116.91
2022-12-03T13:24:39.649Z,102114.03
2022-12-03T13:27:18.253Z,102115.00
2022-12-03T13:29:48.966Z,102126.47
2022-12-03T13:32:34.354Z,102123.88
2022-12-03T13:35:10.306Z,102108.13
2022-12-03T13:37:36.929Z,102112.53
2022-12-03T13:40:23.799Z,102120.44
2022-12-03T13:42:50.247Z,102116.03
2022-12-03T13:45:19.658Z,102118.66
2022-12-03T13:47:45.996Z,102117.81
2022-12-03T13:50:37.998Z,102113.34
2022-12-03T13:53:38.305Z,102115.88
2022-12-03T13:56:30.806Z,102114.06
2022-12-03T13:58:58.075Z,102117.53
2022-12-03T14:01:24.755Z,102116.53
2022-12-03T14:03:51.294Z,102118.28
2022-12-03T14:06:17.915Z,102112.06
2022-12-03T14:08:44.478Z,102119.06
2022-12-03T14:11:10.955Z,102108.53
2022-12-03T14:13:37.383Z,102106.69
2022-12-03T14:16:04.077Z,102109.47
2022-12-03T14:18:30.667Z,102109.41
2022-12-03T14:20:57.152Z,102100.59
2022-12-03T14:23:23.627Z,102097.00
2022-12-03T14:25:51.233Z,102097.94
2022-12-03T14:28:17.691Z,102094.41
2022-12-03T14:30:44.122Z,102098.03
2022-12-03T14:33:10.548Z,102094.38
2022-12-03T14:35:36.976Z,102090.81
2022-12-03T14:38:03.424Z,102090.75
2022-12-03T14:40:29.967Z,102085.47
2022-12-03T14:42:56.374Z,102085.44
2022-12-03T14:45:22.758Z,102088.09
2022-12-03T14:47:49.305Z,102088.16
2022-12-03T14:50:16.519Z,102094.25
2022-12-03T14:52:42.967Z,102088.97
2022-12-03T14:55:09.557Z,102090.69
2022-12-03T14:57:35.969Z,102080.00
2022-12-03T15:00:02.391Z,102095.91
2022-12-03T15:02:29.884Z,102091.59
2022-12-03T15:04:57.838Z,102090.75
2022-12-03T15:07:24.242Z,102090.66
2022-12-03T15:09:50.633Z,102094.09
2022-12-03T15:12:17.085Z,102087.09
2022-12-03T15:14:43.509Z,102091.38
2022-12-03T15:17:09.946Z,102096.59
2022-12-03T15:19:36.393Z,102087.94
2022-12-03T15:22:02.802Z,102098.41
2022-12-03T15:24:29.448Z,102083.44
2022-12-03T15:26:58.566Z,102092.09
2022-12-03T15:29:25.156Z,102085.22
2022-12-03T15:31:51.675Z,102085.13
2022-12-03T15:34:22.520Z,102086.84
2022-12-03T15:36:52.965Z,102077.06
2022-12-03T15:39:19.427Z,102079.69
2022-12-03T15:41:45.915Z,102081.44
2022-12-03T15:44:12.385Z,102080.63
2022-12-03T15:46:41.782Z,102079.03
2022-12-03T15:49:08.330Z,102082.41
2022-12-03T15:51:34.805Z,102090.19
2022-12-03T15:54:01.297Z,102076.97
2022-12-03T15:56:27.718Z,102086.91
2022-12-03T15:59:14.213Z,102076.34
2022-12-03T16:01:40.744Z,102079.88
2022-12-03T16:04:07.218Z,102079.78
2022-12-03T16:06:33.771Z,102070.06
2022-12-03T16:09:04.667Z,102069.38
2022-12-03T16:11:31.160Z,102077.28
2022-12-03T16:13:57.729Z,102070.00
2022-12-03T16:16:26.257Z,102074.38
2022-12-03T16:18:52.717Z,102068.22
2022-12-03T16:21:24.949Z,102066.38
2022-12-03T16:23:52.976Z,102072.53
2022-12-03T16:26:19.409Z,102069.94
2022-12-03T16:28:46.018Z,102063.69
2022-12-03T16:31:16.638Z,102066.16
2022-12-03T16:33:43.470Z,102073.06
2022-12-03T16:36:12.090Z,102069.66
2022-12-03T16:38:39.326Z,102070.59
2022-12-03T16:41:05.868Z,102077.66
2022-12-03T16:43:32.280Z,102069.84
2022-12-03T16:45:58.721Z,102073.31
2022-12-03T16:48:25.275Z,102068.97
2022-12-03T16:50:51.664Z,102069.75
2022-12-03T16:53:18.200Z,102071.44
2022-12-03T16:55:44.602Z,102073.16
2022-12-03T16:58:11.129Z,102070.44
2022-12-03T17:00:39.088Z,102070.44
2022-12-03T17:03:05.573Z,102074.66
2022-12-03T17:05:34.909Z,102076.41
2022-12-03T17:08:01.457Z,102071.16
2022-12-03T17:10:27.976Z,102079.13
2022-12-03T17:13:09.237Z,102076.50
2022-12-03T17:15:36.128Z,102071.31
2022-12-03T17:18:02.612Z,102069.53
2022-12-03T17:20:30.039Z,102073.88
2022-12-03T17:22:57.360Z,102066.88
2022-12-03T17:25:23.781Z,102075.66
2022-12-03T17:27:50.191Z,102066.81
2022-12-03T17:30:16.854Z,102055.38
2022-12-03T17:32:43.261Z,102060.63
2022-12-03T17:35:10.104Z,102059.84
2022-12-03T17:37:36.668Z,102058.16
2022-12-03T17:40:07.081Z,102058.06
2022-12-03T17:42:33.472Z,102052.81
2022-12-03T17:44:59.866Z,102054.50
2022-12-03T17:47:26.289Z,102049.22
2022-12-03T17:49:52.900Z,102051.88
2022-12-03T17:52:19.542Z,102052.81
2022-12-03T17:55:15.378Z,102051.09
2022-12-03T17:57:32.287Z,102050.31
2022-12-03T17:59:58.729Z,102043.19
2022-12-03T18:02:25.191Z,102047.66
2022-12-03T18:04:51.587Z,102044.97
2022-12-03T18:07:18.001Z,102046.72
2022-12-03T18:09:44.390Z,102041.44
2022-12-03T18:12:10.781Z,102044.00
2022-12-03T18:14:37.187Z,102044.94
2022-12-03T18:17:03.582Z,102039.63
2022-12-03T18:19:30.022Z,102037.09
2022-12-03T18:21:56.443Z,102038.94
2022-12-03T18:24:22.843Z,102041.53
2022-12-03T18:26:49.726Z,102041.50
2022-12-03T18:29:16.152Z,102039.50
2022-12-03T18:31:42.608Z,102043.81
2022-12-03T18:34:09.018Z,102051.75
2022-12-03T18:36:35.526Z,102047.38
2022-12-03T18:39:02.369Z,102055.38
2022-12-03T18:41:28.803Z,102058.00
2022-12-03T18:43:55.191Z,102052.59
2022-12-03T18:49:09.006Z,102057.25
2022-12-03T18:51:35.418Z,102058.94
2022-12-03T18:54:01.798Z,102064.16
2022-12-03T18:56:28.203Z,102053.50
2022-12-03T18:58:54.593Z,102063.09
2022-12-03T19:01:22.174Z,102055.19
2022-12-03T19:03:49.264Z,102060.41
2022-12-03T19:06:19.055Z,102053.41
2022-12-03T19:08:45.890Z,102064.81
2022-12-03T19:11:12.460Z,102059.56
2022-12-03T19:13:39.182Z,102055.09
2022-12-03T19:16:06.086Z,102052.41
2022-12-03T19:18:32.502Z,102050.69
2022-12-03T19:20:58.886Z,102048.13
2022-12-03T19:23:25.349Z,102046.28
2022-12-03T19:25:56.443Z,102047.16
2022-12-03T19:28:22.868Z,102048.13
2022-12-03T19:31:19.603Z,102051.56
2022-12-03T19:33:46.198Z,102037.72
2022-12-03T19:36:26.054Z,102040.34
2022-12-03T19:38:57.119Z,102039.34
2022-12-03T19:41:25.251Z,102043.69
2022-12-03T19:43:52.761Z,102049.66
2022-12-03T19:46:21.873Z,102052.09
2022-12-03T19:48:48.466Z,102054.69
2022-12-03T19:51:33.427Z,102049.56
2022-12-03T19:54:00.311Z,102062.72
2022-12-03T19:56:26.723Z,102057.38
2022-12-03T19:58:54.930Z,102058.44
2022-12-03T20:01:23.472Z,102057.50
2022-12-03T20:03:51.614Z,102053.00
2022-12-03T20:06:19.377Z,102059.00
2022-12-03T20:08:46.048Z,102059.94
2022-12-03T20:11:17.458Z,102060.78
2022-12-03T20:13:44.089Z,102065.22
2022-12-03T20:16:12.261Z,102068.59
2022-12-03T20:18:44.044Z,102060.78
2022-12-03T20:21:10.957Z,102060.69
2022-12-03T20:23:38.650Z,102069.34
2022-12-03T20:26:11.987Z,102068.41
2022-12-03T20:28:38.441Z,102075.50
2022-12-03T20:31:09.047Z,102067.50
2022-12-03T20:33:35.506Z,102078.00
2022-12-03T20:36:03.058Z,102080.66
2022-12-03T20:38:29.488Z,102073.59
2022-12-03T20:40:56.006Z,102072.66
2022-12-03T20:43:22.450Z,102068.25
2022-12-03T20:45:49.137Z,102066.44
2022-12-03T20:48:15.767Z,102066.31
2022-12-03T20:50:42.340Z,102071.44
2022-12-03T20:53:24.182Z,102072.25
2022-12-03T20:55:57.534Z,102070.31
2022-12-03T20:58:24.089Z,102065.78
2022-12-03T21:00:52.200Z,102059.69
2022-12-03T21:03:18.822Z,102062.31
2022-12-03T21:05:45.487Z,102068.41
2022-12-03T21:08:12.100Z,102068.38
2022-12-03T21:10:40.151Z,102071.84
2022-12-03T21:13:06.564Z,102069.22
2022-12-03T21:15:32.960Z,102078.88
2022-12-03T21:18:00.812Z,102066.72
2022-12-03T21:20:27.344Z,102068.38
2022-12-03T21:22:53.807Z,102072.44
2022-12-03T21:25:20.498Z,102079.25
2022-12-03T21:27:46.935Z,102073.06
2022-12-03T21:30:16.487Z,102079.94
2022-12-03T21:32:43.200Z,102078.97
2022-12-03T21:35:09.738Z,102064.94
2022-12-03T21:37:36.586Z,102074.69
2022-12-03T21:40:03.065Z,102071.22
2022-12-03T21:42:35.606Z,102079.00
2022-12-03T21:45:05.281Z,102087.69
2022-12-03T21:47:36.948Z,102077.97
2022-12-03T21:50:08.482Z,102082.47
2022-12-03T21:52:35.158Z,102077.97
2022-12-03T21:55:01.655Z,102074.22
2022-12-03T21:57:29.679Z,102076.81
2022-12-03T21:59:56.217Z,102077.81
2022-12-03T22:02:24.124Z,102072.44
2022-12-03T22:04:50.982Z,102073.44
2022-12-03T22:07:19.493Z,102076.81
2022-12-03T22:09:45.903Z,102068.88
2022-12-03T22:12:12.274Z,102077.31
2022-12-03T22:14:38.663Z,102077.06
2022-12-03T22:17:05.069Z,102070.59
2022-12-03T22:19:31.540Z,102065.22
2022-12-03T22:21:57.998Z,102070.41
2022-12-03T22:24:24.424Z,102065.34
2022-12-03T22:26:50.830Z,102060.25
2022-12-03T22:29:17.247Z,102059.31
2022-12-03T22:31:43.659Z,102061.94
2022-12-03T22:34:12.616Z,102064.03
2022-12-03T22:36:39.027Z,102072.84
2022-12-03T22:39:05.530Z,102072.91
2022-12-03T22:41:31.992Z,102064.09
2022-12-03T22:43:58.408Z,102060.63
2022-12-03T22:46:24.866Z,102055.59
2022-12-03T22:48:51.346Z,102058.38
2022-12-03T22:51:21.223Z,102061.09
2022-12-03T22:53:48.032Z,102062.03
2022-12-03T22:56:14.458Z,102058.56
2022-12-03T22:58:40.894Z,102064.84
2022-12-03T23:01:08.428Z,102064.00
2022-12-03T23:03:34.921Z,102056.78
2022-12-03T23:06:01.390Z,102057.63
2022-12-03T23:08:27.785Z,102060.25
2022-12-03T23:10:54.198Z,102056.00
2022-12-03T23:13:20.626Z,102052.47
2022-12-03T23:15:51.456Z,102056.84
2022-12-03T23:18:18.823Z,102051.69
2022-12-03T23:20:50.141Z,102054.16
2022-12-03T23:23:17.693Z,102049.59
2022-12-03T23:25:44.233Z,102056.44
2022-12-03T23:28:10.629Z,102055.69
2022-12-03T23:30:37.767Z,102054.03
2022-12-03T23:33:04.601Z,102050.50
2022-12-03T23:35:31.260Z,102047.88
2022-12-03T23:37:57.700Z,102040.69
2022-12-03T23:40:24.126Z,102040.56
2022-12-03T23:42:50.517Z,102046.72
2022-12-03T23:45:16.973Z,102037.22
2022-12-03T23:47:43.372Z,102044.34
2022-12-03T23:50:10.226Z,102047.66
2022-12-03T23:52:36.643Z,102052.13
2022-12-03T23:55:03.089Z,102055.59
2022-12-03T23:57:29.497Z,102059.00
2022-12-03T23:59:56.197Z,102053.84
